createdAt,value
2018-02-23T00:00:05.074Z,0
2018-02-23T00:00:45.613Z,0
2018-02-23T00:01:26.149Z,0
2018-02-23T00:02:06.703Z,0
2018-02-23T00:02:47.299Z,0
2018-02-23T00:03:27.832Z,0
2018-02-23T00:04:08.356Z,0
2018-02-23T00:04:48.875Z,0
2018-02-23T00:05:29.382Z,0
2018-02-23T00:06:09.926Z,0
2018-02-23T00:06:50.461Z,0
2018-02-23T00:07:31.015Z,0
2018-02-23T00:08:11.638Z,0
2018-02-23T00:08:52.275Z,0
2018-02-23T00:09:32.781Z,0
2018-02-23T00:10:13.338Z,0
2018-02-23T00:10:53.876Z,0
2018-02-23T00:11:34.418Z,0
2018-02-23T00:12:14.982Z,0
2018-02-23T00:12:55.553Z,0
2018-02-23T00:13:36.142Z,0
2018-02-23T00:14:16.686Z,0
2018-02-23T00:14:57.282Z,0
2018-02-23T00:15:37.798Z,0
2018-02-23T00:16:18.322Z,0
2018-02-23T00:16:58.873Z,0
2018-02-23T00:17:39.411Z,0
2018-02-23T00:18:19.973Z,0
2018-02-23T00:19:00.501Z,0
2018-02-23T00:19:41.053Z,0
2018-02-23T00:20:21.628Z,0
2018-02-23T00:21:02.160Z,0
2018-02-23T00:21:42.704Z,0
2018-02-23T00:22:23.267Z,0
2018-02-23T00:23:03.827Z,0
2018-02-23T00:23:44.384Z,0
2018-02-23T00:24:24.932Z,0
2018-02-23T00:25:05.461Z,0
2018-02-23T00:25:46.016Z,0
2018-02-23T00:26:26.539Z,0
2018-02-23T00:27:07.187Z,0
2018-02-23T00:27:47.760Z,0
2018-02-23T00:28:28.291Z,0
2018-02-23T00:29:08.857Z,0
2018-02-23T00:29:49.411Z,0
2018-02-23T00:30:29.950Z,0
2018-02-23T00:31:10.497Z,0
2018-02-23T00:31:51.053Z,0
2018-02-23T00:32:31.613Z,0
2018-02-23T00:33:12.143Z,0
2018-02-23T00:33:52.711Z,0
2018-02-23T00:34:33.258Z,0
2018-02-23T00:35:13.782Z,0
2018-02-23T00:35:54.330Z,0
2018-02-23T00:36:34.894Z,0
2018-02-23T00:37:15.444Z,0
2018-02-23T00:37:56.020Z,0
2018-02-23T00:38:36.604Z,0
2018-02-23T00:39:17.131Z,0
2018-02-23T00:39:57.781Z,0
2018-02-23T00:40:38.272Z,0
2018-02-23T00:41:18.899Z,0
2018-02-23T00:41:59.476Z,0
2018-02-23T00:42:40.075Z,0
2018-02-23T00:43:20.558Z,0
2018-02-23T00:44:01.109Z,0
2018-02-23T00:44:41.676Z,0
2018-02-23T00:45:22.248Z,0
2018-02-23T00:46:02.798Z,0
2018-02-23T00:46:43.357Z,0
2018-02-23T00:47:23.936Z,0
2018-02-23T00:48:04.484Z,0
2018-02-23T00:48:45.069Z,0
2018-02-23T00:49:25.607Z,0
2018-02-23T00:50:06.164Z,0
2018-02-23T00:50:46.743Z,0
2018-02-23T00:51:27.305Z,0
2018-02-23T00:52:07.822Z,0
2018-02-23T00:52:48.353Z,0
2018-02-23T00:53:28.911Z,0
2018-02-23T00:54:09.525Z,0
2018-02-23T00:54:50.095Z,0
2018-02-23T00:55:30.628Z,0
2018-02-23T00:56:11.129Z,0
2018-02-23T00:56:51.703Z,0
2018-02-23T00:57:32.252Z,0
2018-02-23T00:58:12.839Z,0
2018-02-23T00:58:53.388Z,0
2018-02-23T00:59:33.930Z,0
2018-02-23T01:00:14.532Z,0
2018-02-23T01:00:55.091Z,0
2018-02-23T01:01:35.607Z,0
2018-02-23T01:02:16.154Z,0
2018-02-23T01:02:56.770Z,0
2018-02-23T01:03:37.300Z,0
2018-02-23T01:04:17.855Z,0
2018-02-23T01:04:58.446Z,0
2018-02-23T01:05:39.016Z,0
2018-02-23T01:06:19.552Z,0
2018-02-23T01:07:00.102Z,0
2018-02-23T01:07:40.662Z,0
2018-02-23T01:08:21.185Z,0
2018-02-23T01:09:01.720Z,0
2018-02-23T01:09:42.262Z,0
2018-02-23T01:10:22.776Z,0
2018-02-23T01:11:03.359Z,0
2018-02-23T01:11:43.927Z,0
2018-02-23T01:12:24.478Z,0
2018-02-23T01:13:05.047Z,0
2018-02-23T01:13:45.808Z,0
2018-02-23T01:14:26.465Z,0
2018-02-23T01:15:07.055Z,0
2018-02-23T01:15:47.549Z,0
2018-02-23T01:16:28.109Z,0
2018-02-23T01:17:08.667Z,0
2018-02-23T01:17:49.179Z,0
2018-02-23T01:18:29.720Z,0
2018-02-23T01:19:10.280Z,0
2018-02-23T01:19:50.841Z,0
2018-02-23T01:20:32.322Z,0
2018-02-23T01:21:12.896Z,0
2018-02-23T01:21:53.446Z,0
2018-02-23T01:22:34.002Z,0
2018-02-23T01:23:14.553Z,0
2018-02-23T01:23:55.135Z,0
2018-02-23T01:24:35.658Z,0
2018-02-23T01:25:16.235Z,0
2018-02-23T01:25:56.803Z,0
2018-02-23T01:26:37.417Z,0
2018-02-23T01:27:17.976Z,0
2018-02-23T01:27:58.502Z,0
2018-02-23T01:28:39.015Z,0
2018-02-23T01:29:19.549Z,0
2018-02-23T01:30:00.112Z,0
2018-02-23T01:30:40.671Z,0
2018-02-23T01:31:21.222Z,0
2018-02-23T01:32:01.772Z,0
2018-02-23T01:32:42.398Z,0
2018-02-23T01:33:23.075Z,0
2018-02-23T01:34:03.612Z,0
2018-02-23T01:34:44.143Z,0
2018-02-23T01:35:24.705Z,0
2018-02-23T01:36:05.248Z,0
2018-02-23T01:36:45.794Z,0
2018-02-23T01:37:26.318Z,0
2018-02-23T01:38:06.891Z,0
2018-02-23T01:38:47.444Z,0
2018-02-23T01:39:28.009Z,0
2018-02-23T01:40:08.683Z,0
2018-02-23T01:40:49.137Z,0
2018-02-23T01:41:29.675Z,0
2018-02-23T01:42:10.214Z,0
2018-02-23T01:42:50.753Z,0
2018-02-23T01:43:31.301Z,0
2018-02-23T01:44:11.888Z,0
2018-02-23T01:44:53.174Z,0
2018-02-23T01:45:33.072Z,0
2018-02-23T01:46:13.789Z,0
2018-02-23T01:46:54.333Z,0
2018-02-23T01:47:34.862Z,0
2018-02-23T01:48:15.420Z,0
2018-02-23T01:48:55.970Z,0
2018-02-23T01:49:36.522Z,0
2018-02-23T01:50:17.075Z,0
2018-02-23T01:50:57.623Z,0
2018-02-23T01:51:38.180Z,0
2018-02-23T01:52:18.780Z,0
2018-02-23T01:52:59.471Z,0
2018-02-23T01:53:40.039Z,0
2018-02-23T01:54:20.595Z,0
2018-02-23T01:55:01.162Z,0
2018-02-23T01:55:41.729Z,0
2018-02-23T01:56:22.325Z,0
2018-02-23T01:57:02.879Z,0
2018-02-23T01:57:43.438Z,0
2018-02-23T01:58:23.974Z,0
2018-02-23T01:59:04.797Z,0
2018-02-23T01:59:45.352Z,0
2018-02-23T02:00:25.924Z,0
2018-02-23T02:01:06.470Z,0
2018-02-23T02:01:47.695Z,0
2018-02-23T02:02:28.502Z,0
2018-02-23T02:03:09.116Z,0
2018-02-23T02:03:49.652Z,0
2018-02-23T02:04:30.224Z,0
2018-02-23T02:05:10.773Z,0
2018-02-23T02:05:51.322Z,0
2018-02-23T02:06:31.876Z,0
2018-02-23T02:07:12.432Z,0
2018-02-23T02:07:53.089Z,0
2018-02-23T02:08:33.533Z,0
2018-02-23T02:09:14.141Z,0
2018-02-23T02:09:54.653Z,0
2018-02-23T02:10:35.192Z,0
2018-02-23T02:11:15.733Z,0
2018-02-23T02:11:56.288Z,0
2018-02-23T02:12:36.851Z,0
2018-02-23T02:13:17.408Z,0
2018-02-23T02:13:57.965Z,0
2018-02-23T02:14:38.513Z,0
2018-02-23T02:15:19.076Z,0
2018-02-23T02:15:59.674Z,0
2018-02-23T02:16:40.248Z,0
2018-02-23T02:17:20.791Z,0
2018-02-23T02:18:01.343Z,0
2018-02-23T02:18:41.913Z,0
2018-02-23T02:19:22.469Z,0
2018-02-23T02:20:03.025Z,0
2018-02-23T02:20:43.595Z,0
2018-02-23T02:21:24.167Z,0
2018-02-23T02:22:04.728Z,0
2018-02-23T02:22:45.403Z,0
2018-02-23T02:23:25.949Z,0
2018-02-23T02:24:06.500Z,0
2018-02-23T02:24:47.072Z,0
2018-02-23T02:25:27.640Z,0
2018-02-23T02:26:08.207Z,0
2018-02-23T02:26:48.761Z,0
2018-02-23T02:27:29.327Z,0
2018-02-23T02:28:09.908Z,0
2018-02-23T02:28:50.529Z,0
2018-02-23T02:29:31.017Z,0
2018-02-23T02:30:11.582Z,0
2018-02-23T02:30:52.148Z,0
2018-02-23T02:31:32.713Z,0
2018-02-23T02:32:13.282Z,0
2018-02-23T02:32:53.842Z,0
2018-02-23T02:33:34.394Z,0
2018-02-23T02:34:14.956Z,0
2018-02-23T02:34:55.503Z,0
2018-02-23T02:35:36.080Z,0
2018-02-23T02:36:16.640Z,0
2018-02-23T02:36:57.201Z,0
2018-02-23T02:37:37.757Z,0
2018-02-23T02:38:18.322Z,0
2018-02-23T02:38:58.886Z,0
2018-02-23T02:39:39.445Z,0
2018-02-23T02:40:20.188Z,0
2018-02-23T02:41:00.553Z,0
2018-02-23T02:41:41.137Z,0
2018-02-23T02:42:21.698Z,0
2018-02-23T02:43:02.285Z,0
2018-02-23T02:43:42.816Z,0
2018-02-23T02:44:23.387Z,0
2018-02-23T02:45:03.962Z,0
2018-02-23T02:45:44.531Z,0
2018-02-23T02:46:25.140Z,0
2018-02-23T02:47:05.809Z,0
2018-02-23T02:47:46.357Z,0
2018-02-23T02:48:26.977Z,0
2018-02-23T02:49:07.450Z,0
2018-02-23T02:49:48.010Z,0
2018-02-23T02:50:28.578Z,0
2018-02-23T02:51:09.123Z,0
2018-02-23T02:51:49.669Z,0
2018-02-23T02:52:30.497Z,0
2018-02-23T02:53:11.146Z,0
2018-02-23T02:53:51.710Z,0
2018-02-23T02:54:32.261Z,0
2018-02-23T02:55:12.811Z,0
2018-02-23T02:55:53.360Z,0
2018-02-23T02:56:33.936Z,0
2018-02-23T02:57:14.495Z,0
2018-02-23T02:57:55.184Z,0
2018-02-23T02:58:35.830Z,0
2018-02-23T02:59:16.386Z,0
2018-02-23T02:59:56.934Z,0
2018-02-23T03:00:37.513Z,0
2018-02-23T03:01:18.067Z,0
2018-02-23T03:01:58.643Z,0
2018-02-23T03:02:39.175Z,0
2018-02-23T03:03:19.731Z,0
2018-02-23T03:04:01.183Z,0
2018-02-23T03:04:41.032Z,0
2018-02-23T03:05:21.588Z,0
2018-02-23T03:06:02.133Z,0
2018-02-23T03:06:42.693Z,0
2018-02-23T03:07:23.256Z,0
2018-02-23T03:08:03.936Z,0
2018-02-23T03:08:44.483Z,0
2018-02-23T03:09:25.079Z,0
2018-02-23T03:10:05.798Z,0
2018-02-23T03:10:46.350Z,0
2018-02-23T03:11:26.875Z,0
2018-02-23T03:12:07.480Z,0
2018-02-23T03:12:47.986Z,0
2018-02-23T03:13:28.579Z,0
2018-02-23T03:14:09.093Z,0
2018-02-23T03:14:49.642Z,0
2018-02-23T03:15:30.290Z,0
2018-02-23T03:16:10.975Z,0
2018-02-23T03:16:51.727Z,0
2018-02-23T03:17:32.283Z,0
2018-02-23T03:18:12.821Z,0
2018-02-23T03:18:53.371Z,0
2018-02-23T03:21:22.749Z,0
2018-02-23T03:22:03.291Z,0
2018-02-23T03:22:43.838Z,0
2018-02-23T03:23:24.403Z,0
2018-02-23T03:24:04.943Z,0
2018-02-23T03:24:45.482Z,0
2018-02-23T03:25:26.052Z,0
2018-02-23T03:26:06.569Z,0
2018-02-23T03:26:47.155Z,0
2018-02-23T03:27:27.693Z,0
2018-02-23T03:28:08.266Z,0
2018-02-23T03:28:48.809Z,0
2018-02-23T03:29:29.338Z,0
2018-02-23T03:30:09.875Z,0
2018-02-23T03:30:51.392Z,0
2018-02-23T03:31:31.943Z,0
2018-02-23T03:32:12.491Z,0
2018-02-23T03:32:53.055Z,0
2018-02-23T03:33:33.639Z,0
2018-02-23T03:34:14.176Z,0
2018-02-23T03:34:54.768Z,0
2018-02-23T03:35:35.331Z,0
2018-02-23T03:36:15.867Z,0
2018-02-23T03:36:56.434Z,0
2018-02-23T03:37:36.996Z,0
2018-02-23T03:38:17.540Z,0
2018-02-23T03:38:58.096Z,0
2018-02-23T03:39:38.653Z,0
2018-02-23T03:40:19.202Z,0
2018-02-23T03:40:59.746Z,0
2018-02-23T03:41:40.293Z,0
2018-02-23T03:42:20.947Z,0
2018-02-23T03:43:01.443Z,0
2018-02-23T03:43:41.920Z,0
2018-02-23T03:44:22.454Z,0
2018-02-23T03:45:03.016Z,0
2018-02-23T03:45:43.571Z,0
2018-02-23T03:46:24.110Z,0
2018-02-23T03:47:04.669Z,0
2018-02-23T03:47:45.289Z,0
2018-02-23T03:48:25.800Z,0
2018-02-23T03:49:06.634Z,0
2018-02-23T03:49:47.192Z,0
2018-02-23T03:50:27.729Z,0
2018-02-23T03:51:08.303Z,0
2018-02-23T03:51:48.850Z,0
2018-02-23T03:52:29.390Z,0
2018-02-23T03:53:09.933Z,0
2018-02-23T03:53:50.485Z,0
2018-02-23T03:54:31.238Z,0
2018-02-23T03:55:11.814Z,0
2018-02-23T03:55:52.359Z,0
2018-02-23T03:56:32.923Z,0
2018-02-23T03:57:13.470Z,0
2018-02-23T03:57:54.020Z,0
2018-02-23T03:58:34.564Z,0
2018-02-23T03:59:15.116Z,0
2018-02-23T03:59:55.655Z,0
2018-02-23T04:00:36.207Z,0
2018-02-23T04:01:16.742Z,0
2018-02-23T04:01:57.327Z,0
2018-02-23T04:02:37.885Z,0
2018-02-23T04:03:18.435Z,0
2018-02-23T04:03:59.111Z,0
2018-02-23T04:04:39.700Z,0
2018-02-23T04:05:20.265Z,0
2018-02-23T04:06:00.799Z,0
2018-02-23T04:06:41.371Z,0
2018-02-23T04:07:21.921Z,0
2018-02-23T04:08:02.481Z,0
2018-02-23T04:08:43.050Z,0
2018-02-23T04:09:23.577Z,0
2018-02-23T04:10:04.127Z,0
2018-02-23T04:10:44.689Z,0
2018-02-23T04:11:25.236Z,0
2018-02-23T04:12:05.769Z,0
2018-02-23T04:12:46.399Z,0
2018-02-23T04:13:26.938Z,0
2018-02-23T04:14:07.502Z,0
2018-02-23T04:14:48.053Z,0
2018-02-23T04:15:28.604Z,0
2018-02-23T04:16:09.155Z,0
2018-02-23T04:16:49.680Z,0
2018-02-23T04:17:30.221Z,0
2018-02-23T04:18:10.774Z,0
2018-02-23T04:18:51.321Z,0
2018-02-23T04:19:31.864Z,0
2018-02-23T04:20:12.413Z,0
2018-02-23T04:20:52.952Z,0
2018-02-23T04:21:33.501Z,0
2018-02-23T04:22:14.060Z,0
2018-02-23T04:22:54.625Z,0
2018-02-23T04:23:35.167Z,0
2018-02-23T04:24:15.718Z,0
2018-02-23T04:24:56.277Z,0
2018-02-23T04:25:36.812Z,0
2018-02-23T04:26:17.362Z,0
2018-02-23T04:26:57.922Z,0
2018-02-23T04:27:38.461Z,0
2018-02-23T04:28:19.043Z,0
2018-02-23T04:28:59.572Z,0
2018-02-23T04:29:40.191Z,0
2018-02-23T04:30:20.841Z,0
2018-02-23T04:31:01.322Z,0
2018-02-23T04:31:41.873Z,0
2018-02-23T04:32:22.444Z,0
2018-02-23T04:33:02.984Z,0
2018-02-23T04:33:43.532Z,0
2018-02-23T04:34:24.086Z,0
2018-02-23T04:35:04.650Z,0
2018-02-23T04:35:45.202Z,0
2018-02-23T04:36:25.753Z,0
2018-02-23T04:37:06.306Z,0
2018-02-23T04:37:46.844Z,0
2018-02-23T04:38:28.080Z,0
2018-02-23T04:39:08.606Z,0
2018-02-23T04:39:49.144Z,0
2018-02-23T04:40:29.721Z,0
2018-02-23T04:41:10.229Z,0
2018-02-23T04:41:50.793Z,0
2018-02-23T04:42:31.353Z,0
2018-02-23T04:43:11.916Z,0
2018-02-23T04:43:52.473Z,0
2018-02-23T04:44:33.047Z,0
2018-02-23T04:45:13.592Z,0
2018-02-23T04:45:54.150Z,0
2018-02-23T04:46:34.698Z,0
2018-02-23T04:47:15.251Z,0
2018-02-23T04:47:55.812Z,0
2018-02-23T04:48:36.386Z,0
2018-02-23T04:49:16.918Z,0
2018-02-23T04:49:57.485Z,0
2018-02-23T04:50:38.043Z,0
2018-02-23T04:51:18.582Z,0
2018-02-23T04:51:59.116Z,0
2018-02-23T04:52:39.671Z,0
2018-02-23T04:53:20.242Z,0
2018-02-23T04:54:00.795Z,0
2018-02-23T04:54:41.327Z,0
2018-02-23T04:55:21.873Z,0
2018-02-23T04:56:02.441Z,0
2018-02-23T04:56:42.990Z,0
2018-02-23T04:57:23.570Z,0
2018-02-23T04:58:04.133Z,0
2018-02-23T04:58:44.691Z,0
2018-02-23T04:59:25.245Z,0
2018-02-23T05:00:05.912Z,0
2018-02-23T05:00:46.362Z,0
2018-02-23T05:01:26.917Z,0
2018-02-23T05:02:07.455Z,0
2018-02-23T05:02:48.010Z,0
2018-02-23T05:03:28.572Z,0
2018-02-23T05:04:09.132Z,0
2018-02-23T05:04:49.686Z,0
2018-02-23T05:05:30.236Z,0
2018-02-23T05:06:10.787Z,0
2018-02-23T05:06:51.345Z,0
2018-02-23T05:07:31.915Z,0
2018-02-23T05:08:12.481Z,0
2018-02-23T05:08:53.026Z,0
2018-02-23T05:09:33.617Z,0
2018-02-23T05:10:14.146Z,0
2018-02-23T05:10:54.694Z,0
2018-02-23T05:11:35.262Z,0
2018-02-23T05:12:15.788Z,0
2018-02-23T05:12:56.336Z,0
2018-02-23T05:13:36.884Z,0
2018-02-23T05:14:17.433Z,0
2018-02-23T05:14:58.815Z,0
2018-02-23T05:15:38.724Z,0
2018-02-23T05:16:19.283Z,0
2018-02-23T05:16:59.834Z,0
2018-02-23T05:17:40.421Z,0
2018-02-23T05:18:20.988Z,0
2018-02-23T05:19:01.528Z,0
2018-02-23T05:19:42.093Z,0
2018-02-23T05:20:22.637Z,0
2018-02-23T05:21:03.212Z,0
2018-02-23T05:21:43.769Z,0
2018-02-23T05:22:24.304Z,0
2018-02-23T05:23:04.860Z,0
2018-02-23T05:23:45.399Z,0
2018-02-23T05:24:26.033Z,0
2018-02-23T05:25:06.599Z,0
2018-02-23T05:25:47.130Z,0
2018-02-23T05:26:27.672Z,0
2018-02-23T05:27:08.208Z,0
2018-02-23T05:27:48.770Z,0
2018-02-23T05:28:29.316Z,0
2018-02-23T05:29:09.893Z,0
2018-02-23T05:29:50.458Z,0
2018-02-23T05:30:30.994Z,0
2018-02-23T05:31:11.558Z,0
2018-02-23T05:31:52.123Z,0
2018-02-23T05:32:32.676Z,0
2018-02-23T05:33:13.218Z,0
2018-02-23T05:33:53.792Z,0
2018-02-23T05:34:34.342Z,0
2018-02-23T05:35:14.897Z,0
2018-02-23T05:35:55.439Z,0
2018-02-23T05:36:35.983Z,0
2018-02-23T05:37:16.535Z,0
2018-02-23T05:37:57.095Z,0
2018-02-23T05:38:37.650Z,0
2018-02-23T05:39:18.215Z,0
2018-02-23T05:39:58.785Z,0
2018-02-23T05:40:39.353Z,0
2018-02-23T05:41:19.913Z,0
2018-02-23T05:42:00.465Z,0
2018-02-23T05:42:41.819Z,0
2018-02-23T05:43:21.553Z,0
2018-02-23T05:44:02.147Z,0
2018-02-23T05:44:42.714Z,0
2018-02-23T05:45:23.264Z,0
2018-02-23T05:46:03.829Z,0
2018-02-23T05:46:44.386Z,0
2018-02-23T05:47:24.942Z,0
2018-02-23T05:48:05.488Z,0
2018-02-23T05:48:46.066Z,0
2018-02-23T05:49:26.638Z,0
2018-02-23T05:50:07.192Z,0
2018-02-23T05:50:47.774Z,0
2018-02-23T05:51:28.288Z,0
2018-02-23T05:52:08.855Z,0
2018-02-23T05:52:49.450Z,0
2018-02-23T05:53:29.988Z,0
2018-02-23T05:54:10.561Z,0
2018-02-23T05:54:51.161Z,0
2018-02-23T05:55:31.688Z,0
2018-02-23T05:56:12.256Z,0
2018-02-23T05:56:52.811Z,0
2018-02-23T05:57:33.380Z,0
2018-02-23T05:58:14.042Z,0
2018-02-23T05:58:54.509Z,0
2018-02-23T05:59:35.054Z,0
2018-02-23T06:00:15.615Z,0
2018-02-23T06:00:56.179Z,0
2018-02-23T06:01:36.738Z,0
2018-02-23T06:02:17.292Z,0
2018-02-23T06:02:57.848Z,0
2018-02-23T06:03:38.398Z,0
2018-02-23T06:04:18.962Z,0
2018-02-23T06:04:59.508Z,0
2018-02-23T06:05:40.088Z,0
2018-02-23T06:06:20.662Z,0
2018-02-23T06:07:01.221Z,0
2018-02-23T06:07:41.827Z,0
2018-02-23T06:08:22.385Z,0
2018-02-23T06:09:02.944Z,0
2018-02-23T06:09:43.503Z,0
2018-02-23T06:10:24.056Z,0
2018-02-23T06:11:04.656Z,0
2018-02-23T06:11:45.169Z,0
2018-02-23T06:12:25.750Z,0
2018-02-23T06:13:06.329Z,0
2018-02-23T06:13:46.880Z,0
2018-02-23T06:14:27.445Z,0
2018-02-23T06:15:08.005Z,0
2018-02-23T06:15:48.562Z,0
2018-02-23T06:16:29.112Z,0
2018-02-23T06:17:09.672Z,0
2018-02-23T06:17:50.232Z,0
2018-02-23T06:18:30.787Z,5
2018-02-23T06:19:11.348Z,5
2018-02-23T06:19:51.896Z,5
2018-02-23T06:20:32.478Z,5
2018-02-23T06:21:13.039Z,5
2018-02-23T06:21:53.598Z,5
2018-02-23T06:22:34.159Z,5
2018-02-23T06:23:14.733Z,5
2018-02-23T06:23:55.284Z,5
2018-02-23T06:24:35.857Z,5
2018-02-23T06:25:16.421Z,5
2018-02-23T06:25:56.999Z,5
2018-02-23T06:26:37.564Z,10
2018-02-23T06:27:18.132Z,10
2018-02-23T06:27:58.686Z,10
2018-02-23T06:28:39.262Z,10
2018-02-23T06:29:19.882Z,10
2018-02-23T06:30:00.441Z,10
2018-02-23T06:30:40.997Z,10
2018-02-23T06:31:21.560Z,10
2018-02-23T06:32:02.122Z,10
2018-02-23T06:32:42.691Z,15
2018-02-23T06:33:23.229Z,15
2018-02-23T06:34:03.774Z,15
2018-02-23T06:34:44.348Z,15
2018-02-23T06:35:24.898Z,15
2018-02-23T06:36:05.472Z,15
2018-02-23T06:36:46.036Z,15
2018-02-23T06:37:26.593Z,15
2018-02-23T06:38:07.150Z,20
2018-02-23T06:38:47.711Z,20
2018-02-23T06:39:28.254Z,20
2018-02-23T06:40:08.823Z,20
2018-02-23T06:40:49.380Z,20
2018-02-23T06:41:29.926Z,20
2018-02-23T06:42:10.492Z,20
2018-02-23T06:42:51.101Z,25
2018-02-23T06:43:31.651Z,25
2018-02-23T06:44:12.211Z,25
2018-02-23T06:44:52.743Z,25
2018-02-23T06:45:33.324Z,25
2018-02-23T06:46:13.879Z,25
2018-02-23T06:46:54.429Z,25
2018-02-23T06:47:34.997Z,30
2018-02-23T06:48:15.563Z,30
2018-02-23T06:48:56.144Z,30
2018-02-23T06:49:36.700Z,30
2018-02-23T06:50:17.258Z,30
2018-02-23T06:50:57.871Z,35
2018-02-23T06:51:38.429Z,35
2018-02-23T06:52:18.978Z,35
2018-02-23T06:52:59.526Z,35
2018-02-23T06:53:40.109Z,35
2018-02-23T06:54:20.654Z,40
2018-02-23T06:55:01.228Z,40
2018-02-23T06:55:41.790Z,40
2018-02-23T06:56:22.348Z,40
2018-02-23T06:57:02.912Z,40
2018-02-23T06:57:43.474Z,40
2018-02-23T06:58:24.070Z,40
2018-02-23T06:59:04.636Z,40
2018-02-23T06:59:45.211Z,40
2018-02-23T07:00:25.750Z,45
2018-02-23T07:01:06.319Z,45
2018-02-23T07:01:46.891Z,45
2018-02-23T07:02:27.468Z,45
2018-02-23T07:03:08.013Z,45
2018-02-23T07:03:48.610Z,45
2018-02-23T07:04:29.155Z,45
2018-02-23T07:05:09.724Z,50
2018-02-23T07:05:50.330Z,50
2018-02-23T07:06:30.832Z,50
2018-02-23T07:07:11.373Z,50
2018-02-23T07:07:51.942Z,50
2018-02-23T07:08:32.511Z,50
2018-02-23T07:09:13.076Z,55
2018-02-23T07:09:53.759Z,55
2018-02-23T07:10:34.317Z,55
2018-02-23T07:11:14.905Z,55
2018-02-23T07:11:55.414Z,55
2018-02-23T07:12:35.966Z,55
2018-02-23T07:13:16.525Z,55
2018-02-23T07:13:57.126Z,55
2018-02-23T07:14:37.683Z,60
2018-02-23T07:15:18.267Z,60
2018-02-23T07:15:58.827Z,60
2018-02-23T07:16:39.396Z,60
2018-02-23T07:17:19.967Z,60
2018-02-23T07:18:00.514Z,55
2018-02-23T07:18:41.087Z,60
2018-02-23T07:19:21.658Z,60
2018-02-23T07:20:02.229Z,60
2018-02-23T07:20:42.789Z,60
2018-02-23T07:21:23.351Z,60
2018-02-23T07:22:03.911Z,60
2018-02-23T07:22:44.468Z,65
2018-02-23T07:23:25.037Z,65
2018-02-23T07:24:05.599Z,65
2018-02-23T07:24:46.166Z,65
2018-02-23T07:25:28.255Z,70
2018-02-23T07:26:08.773Z,70
2018-02-23T07:26:49.544Z,70
2018-02-23T07:27:30.121Z,70
2018-02-23T07:28:10.684Z,70
2018-02-23T07:28:51.251Z,70
2018-02-23T07:29:31.844Z,70
2018-02-23T07:30:12.475Z,70
2018-02-23T07:30:53.034Z,75
2018-02-23T07:31:33.582Z,70
2018-02-23T07:32:14.163Z,70
2018-02-23T07:32:54.701Z,70
2018-02-23T07:33:35.274Z,75
2018-02-23T07:34:15.843Z,75
2018-02-23T07:34:56.412Z,75
2018-02-23T07:35:37.063Z,75
2018-02-23T07:36:17.538Z,75
2018-02-23T07:36:58.090Z,75
2018-02-23T07:37:38.637Z,75
2018-02-23T07:38:19.180Z,75
2018-02-23T07:38:59.746Z,75
2018-02-23T07:39:40.334Z,75
2018-02-23T07:40:20.900Z,80
2018-02-23T07:41:01.560Z,80
2018-02-23T07:41:42.095Z,80
2018-02-23T07:42:22.647Z,80
2018-02-23T07:43:03.198Z,80
2018-02-23T07:43:43.744Z,80
2018-02-23T07:44:24.314Z,80
2018-02-23T07:45:04.954Z,80
2018-02-23T07:45:45.469Z,80
2018-02-23T07:46:26.044Z,80
2018-02-23T07:47:06.633Z,80
2018-02-23T07:47:47.201Z,80
2018-02-23T07:48:27.733Z,80
2018-02-23T07:49:08.284Z,80
2018-02-23T07:49:48.840Z,80
2018-02-23T07:50:29.404Z,80
2018-02-23T07:51:10.125Z,85
2018-02-23T07:51:50.664Z,85
2018-02-23T07:52:31.691Z,85
2018-02-23T07:53:12.251Z,85
2018-02-23T07:53:52.800Z,85
2018-02-23T07:54:33.371Z,85
2018-02-23T07:55:13.947Z,85
2018-02-23T07:55:54.504Z,85
2018-02-23T07:56:35.067Z,85
2018-02-23T07:57:15.686Z,85
2018-02-23T07:57:56.271Z,85
2018-02-23T07:58:36.825Z,85
2018-02-23T07:59:17.416Z,90
2018-02-23T07:59:57.940Z,90
2018-02-23T08:00:38.473Z,90
2018-02-23T08:01:19.089Z,85
2018-02-23T08:01:59.573Z,85
2018-02-23T08:02:40.133Z,85
2018-02-23T08:03:20.677Z,85
2018-02-23T08:04:01.287Z,85
2018-02-23T08:04:41.838Z,90
2018-02-23T08:05:22.481Z,90
2018-02-23T08:06:02.989Z,90
2018-02-23T08:06:43.532Z,90
2018-02-23T08:07:24.072Z,90
2018-02-23T08:08:04.645Z,90
2018-02-23T08:08:45.268Z,90
2018-02-23T08:09:25.819Z,90
2018-02-23T08:10:06.362Z,90
2018-02-23T08:10:46.927Z,95
2018-02-23T08:11:27.470Z,95
2018-02-23T08:12:08.029Z,95
2018-02-23T08:12:48.600Z,85
2018-02-23T08:13:29.148Z,90
2018-02-23T08:14:09.698Z,90
2018-02-23T08:14:50.526Z,95
2018-02-23T08:15:31.914Z,95
2018-02-23T08:16:12.789Z,95
2018-02-23T08:16:53.505Z,95
2018-02-23T08:17:34.065Z,95
2018-02-23T08:18:14.620Z,95
2018-02-23T08:18:55.180Z,95
2018-02-23T08:19:35.751Z,95
2018-02-23T08:20:16.307Z,95
2018-02-23T08:20:56.901Z,100
2018-02-23T08:21:37.433Z,100
2018-02-23T08:22:17.963Z,100
2018-02-23T08:22:58.517Z,95
2018-02-23T08:23:39.083Z,95
2018-02-23T08:24:19.650Z,95
2018-02-23T08:25:00.182Z,100
2018-02-23T08:25:40.776Z,100
2018-02-23T08:26:21.319Z,100
2018-02-23T08:27:01.913Z,100
2018-02-23T08:27:42.503Z,100
2018-02-23T08:28:23.222Z,100
2018-02-23T08:29:04.190Z,100
2018-02-23T08:29:44.736Z,95
2018-02-23T08:30:25.537Z,100
2018-02-23T08:31:06.096Z,100
2018-02-23T08:31:46.882Z,100
2018-02-23T08:32:27.588Z,100
2018-02-23T08:33:08.206Z,105
2018-02-23T08:33:48.752Z,105
2018-02-23T08:34:29.310Z,105
2018-02-23T08:35:09.864Z,110
2018-02-23T08:35:50.437Z,105
2018-02-23T08:36:31.133Z,105
2018-02-23T08:37:11.715Z,100
2018-02-23T08:37:52.317Z,100
2018-02-23T08:38:32.857Z,100
2018-02-23T08:39:13.425Z,100
2018-02-23T08:39:53.944Z,100
2018-02-23T08:40:34.508Z,100
2018-02-23T08:41:15.148Z,100
2018-02-23T08:41:55.796Z,100
2018-02-23T08:42:36.457Z,100
2018-02-23T08:43:17.005Z,100
2018-02-23T08:43:57.565Z,100
2018-02-23T08:44:38.073Z,100
2018-02-23T08:45:18.583Z,100
2018-02-23T08:45:59.153Z,100
2018-02-23T08:46:39.747Z,100
2018-02-23T08:47:20.349Z,100
2018-02-23T08:48:00.905Z,100
2018-02-23T08:48:41.446Z,100
2018-02-23T08:49:21.963Z,100
2018-02-23T08:50:02.648Z,100
2018-02-23T08:50:43.130Z,100
2018-02-23T08:51:23.654Z,105
2018-02-23T08:52:04.146Z,105
2018-02-23T08:52:44.680Z,105
2018-02-23T08:53:25.318Z,105
2018-02-23T08:54:05.845Z,105
2018-02-23T08:54:46.540Z,105
2018-02-23T08:55:27.059Z,105
2018-02-23T08:56:07.862Z,105
2018-02-23T08:56:48.370Z,105
2018-02-23T08:57:28.991Z,105
2018-02-23T08:58:09.421Z,105
2018-02-23T08:58:49.962Z,105
2018-02-23T08:59:30.460Z,105
2018-02-23T09:00:11.077Z,105
2018-02-23T09:00:51.614Z,105
2018-02-23T09:01:32.177Z,105
2018-02-23T09:02:12.721Z,105
2018-02-23T09:02:53.227Z,105
2018-02-23T09:03:33.741Z,105
2018-02-23T09:04:14.345Z,105
2018-02-23T09:04:54.845Z,100
2018-02-23T09:05:35.857Z,105
2018-02-23T09:06:16.336Z,105
2018-02-23T09:06:56.821Z,100
2018-02-23T09:07:37.582Z,105
2018-02-23T09:08:18.270Z,105
2018-02-23T09:08:58.793Z,105
2018-02-23T09:09:39.292Z,105
2018-02-23T09:10:19.941Z,105
2018-02-23T09:11:00.504Z,105
2018-02-23T09:11:41.066Z,105
2018-02-23T09:12:21.612Z,105
2018-02-23T09:13:02.193Z,105
2018-02-23T09:13:42.788Z,105
2018-02-23T09:14:23.315Z,105
2018-02-23T09:15:03.903Z,100
2018-02-23T09:15:44.449Z,100
2018-02-23T09:16:25.044Z,100
2018-02-23T09:17:05.592Z,100
2018-02-23T09:17:46.177Z,100
2018-02-23T09:18:26.772Z,105
2018-02-23T09:19:07.292Z,105
2018-02-23T09:19:47.843Z,105
2018-02-23T09:20:28.396Z,105
2018-02-23T09:21:08.867Z,105
2018-02-23T09:21:49.405Z,105
2018-02-23T09:22:29.959Z,105
2018-02-23T09:23:10.525Z,105
2018-02-23T09:23:51.029Z,100
2018-02-23T09:24:31.624Z,105
2018-02-23T09:25:12.144Z,100
2018-02-23T09:25:52.702Z,100
2018-02-23T09:26:33.290Z,105
2018-02-23T09:27:13.801Z,100
2018-02-23T09:27:54.344Z,105
2018-02-23T09:28:34.904Z,105
2018-02-23T09:29:15.439Z,105
2018-02-23T09:29:56.006Z,105
2018-02-23T09:30:36.532Z,105
2018-02-23T09:31:17.049Z,105
2018-02-23T09:31:57.633Z,105
2018-02-23T09:32:38.200Z,110
2018-02-23T09:33:18.764Z,105
2018-02-23T09:33:59.286Z,110
2018-02-23T09:34:39.870Z,105
2018-02-23T09:35:20.420Z,105
2018-02-23T09:36:00.937Z,105
2018-02-23T09:36:41.585Z,110
2018-02-23T09:37:22.188Z,110
2018-02-23T09:38:02.743Z,110
2018-02-23T09:38:43.354Z,110
2018-02-23T09:39:24.013Z,110
2018-02-23T09:40:04.486Z,125
2018-02-23T09:40:45.004Z,130
2018-02-23T09:41:25.537Z,135
2018-02-23T09:42:06.071Z,135
2018-02-23T09:42:46.605Z,135
2018-02-23T09:43:27.208Z,140
2018-02-23T09:44:07.785Z,135
2018-02-23T09:44:48.305Z,145
2018-02-23T09:45:28.814Z,140
2018-02-23T09:46:09.329Z,145
2018-02-23T09:46:50.089Z,145
2018-02-23T09:47:30.453Z,140
2018-02-23T09:48:11.023Z,140
2018-02-23T09:48:51.604Z,140
2018-02-23T09:49:32.085Z,140
2018-02-23T09:50:12.751Z,140
2018-02-23T09:50:53.214Z,145